sensor_id;sensor_type;location;lat;lon;timestamp;pressure;altitude;pressure_sealevel;temperature;humidity
7309;BME280;3695;53.330;9.876;2022-11-15T00:01:18;106140.47;;;6.84;100.00
7309;BME280;3695;53.330;9.876;2022-11-15T00:03:45;106163.19;;;7.01;100.00
7309;BME280;3695;53.330;9.876;2022-11-15T00:06:12;106127.28;;;6.99;100.00
7309;BME280;3695;53.330;9.876;2022-11-15T00:08:38;106082.13;;;6.82;100.00
7309;BME280;3695;53.330;9.876;2022-11-15T00:11:05;106118.13;;;6.81;100.00
7309;BME280;3695;53.330;9.876;2022-11-15T00:13:31;106190.53;;;6.91;100.00
7309;BME280;3695;53.330;9.876;2022-11-15T00:16:00;106193.94;;;6.97;100.00
7309;BME280;3695;53.330;9.876;2022-11-15T00:18:27;106225.81;;;7.09;100.00
7309;BME280;3695;53.330;9.876;2022-11-15T00:20:53;106220.06;;;7.18;100.00
7309;BME280;3695;53.330;9.876;2022-11-15T00:23:20;106188.69;;;7.15;100.00
7309;BME280;3695;53.330;9.876;2022-11-15T00:25:46;106157.09;;;7.17;100.00
7309;BME280;3695;53.330;9.876;2022-11-15T00:28:13;106097.28;;;7.06;100.00
7309;BME280;3695;53.330;9.876;2022-11-15T00:30:39;106061.63;;;6.98;100.00
7309;BME280;3695;53.330;9.876;2022-11-15T00:33:08;106068.78;;;6.99;100.00
7309;BME280;3695;53.330;9.876;2022-11-15T00:35:35;106056.56;;;6.90;100.00
7309;BME280;3695;53.330;9.876;2022-11-15T00:38:02;106041.84;;;6.77;100.00
7309;BME280;3695;53.330;9.876;2022-11-15T00:40:29;106018.16;;;6.63;100.00
7309;BME280;3695;53.330;9.876;2022-11-15T00:42:56;106043.75;;;6.75;100.00
7309;BME280;3695;53.330;9.876;2022-11-15T00:45:22;106030.50;;;6.69;100.00
7309;BME280;3695;53.330;9.876;2022-11-15T00:47:49;106020.97;;;6.60;100.00
7309;BME280;3695;53.330;9.876;2022-11-15T00:50:18;106060.19;;;6.69;100.00
7309;BME280;3695;53.330;9.876;2022-11-15T00:52:44;106086.91;;;6.75;100.00
7309;BME280;3695;53.330;9.876;2022-11-15T00:55:13;106094.19;;;6.73;100.00
7309;BME280;3695;53.330;9.876;2022-11-15T00:57:40;106077.31;;;6.68;100.00
7309;BME280;3695;53.330;9.876;2022-11-15T01:00:08;106081.88;;;6.66;100.00
7309;BME280;3695;53.330;9.876;2022-11-15T01:02:35;106093.50;;;6.68;100.00
7309;BME280;3695;53.330;9.876;2022-11-15T01:05:01;106135.31;;;6.78;100.00
7309;BME280;3695;53.330;9.876;2022-11-15T01:07:29;106174.22;;;6.94;100.00
7309;BME280;3695;53.330;9.876;2022-11-15T01:09:55;106154.41;;;6.95;100.00
7309;BME280;3695;53.330;9.876;2022-11-15T01:12:22;106130.91;;;6.98;100.00
7309;BME280;3695;53.330;9.876;2022-11-15T01:14:49;106117.09;;;7.05;100.00
7309;BME280;3695;53.330;9.876;2022-11-15T01:17:15;106072.31;;;7.01;100.00
7309;BME280;3695;53.330;9.876;2022-11-15T01:19:42;106017.66;;;6.96;100.00
7309;BME280;3695;53.330;9.876;2022-11-15T01:22:08;106006.66;;;7.01;100.00
7309;BME280;3695;53.330;9.876;2022-11-15T01:24:36;105993.22;;;6.99;100.00
7309;BME280;3695;53.330;9.876;2022-11-15T01:27:03;105936.09;;;6.89;100.00
7309;BME280;3695;53.330;9.876;2022-11-15T01:29:29;105896.50;;;6.90;100.00
7309;BME280;3695;53.330;9.876;2022-11-15T01:31:56;105863.13;;;6.92;100.00
7309;BME280;3695;53.330;9.876;2022-11-15T01:34:22;105834.66;;;6.85;100.00
7309;BME280;3695;53.330;9.876;2022-11-15T01:36:49;105841.38;;;6.95;100.00
7309;BME280;3695;53.330;9.876;2022-11-15T01:39:15;105812.13;;;6.86;100.00
7309;BME280;3695;53.330;9.876;2022-11-15T01:41:44;105762.13;;;6.79;100.00
7309;BME280;3695;53.330;9.876;2022-11-15T01:44:37;105731.28;;;6.66;100.00
7309;BME280;3695;53.330;9.876;2022-11-15T01:47:07;105721.69;;;6.59;100.00
7309;BME280;3695;53.330;9.876;2022-11-15T01:49:38;105738.31;;;6.50;100.00
7309;BME280;3695;53.330;9.876;2022-11-15T01:52:09;105770.41;;;6.36;100.00
7309;BME280;3695;53.330;9.876;2022-11-15T01:54:37;105837.06;;;6.32;100.00
7309;BME280;3695;53.330;9.876;2022-11-15T01:57:07;105916.22;;;6.29;100.00
7309;BME280;3695;53.330;9.876;2022-11-15T01:59:36;106008.25;;;6.42;100.00
7309;BME280;3695;53.330;9.876;2022-11-15T02:02:03;105978.59;;;6.20;100.00
7309;BME280;3695;53.330;9.876;2022-11-15T02:04:32;105972.63;;;6.12;100.00
7309;BME280;3695;53.330;9.876;2022-11-15T02:07:02;105960.59;;;5.99;100.00
7309;BME280;3695;53.330;9.876;2022-11-15T02:09:29;105986.03;;;5.92;100.00
7309;BME280;3695;53.330;9.876;2022-11-15T02:11:56;106031.91;;;5.89;100.00
7309;BME280;3695;53.330;9.876;2022-11-15T02:14:25;106081.81;;;5.99;100.00
7309;BME280;3695;53.330;9.876;2022-11-15T02:16:58;106049.72;;;5.69;100.00
7309;BME280;3695;53.330;9.876;2022-11-15T02:19:46;106129.09;;;5.83;100.00
7309;BME280;3695;53.330;9.876;2022-11-15T02:22:29;106148.50;;;5.67;100.00
7309;BME280;3695;53.330;9.876;2022-11-15T02:25:08;106180.91;;;5.64;100.00
7309;BME280;3695;53.330;9.876;2022-11-15T02:28:10;106301.34;;;5.87;100.00
7309;BME280;3695;53.330;9.876;2022-11-15T02:30:45;106309.69;;;5.80;100.00
7309;BME280;3695;53.330;9.876;2022-11-15T02:33:21;106315.06;;;5.80;100.00
7309;BME280;3695;53.330;9.876;2022-11-15T02:35:57;106306.72;;;5.87;100.00
7309;BME280;3695;53.330;9.876;2022-11-15T02:38:32;106261.19;;;5.80;100.00
7309;BME280;3695;53.330;9.876;2022-11-15T02:41:04;106277.09;;;5.87;100.00
7309;BME280;3695;53.330;9.876;2022-11-15T02:43:37;106242.50;;;5.75;100.00
7309;BME280;3695;53.330;9.876;2022-11-15T02:46:27;106274.66;;;5.80;100.00
7309;BME280;3695;53.330;9.876;2022-11-15T02:49:11;106267.72;;;5.73;100.00
7309;BME280;3695;53.330;9.876;2022-11-15T02:51:38;106250.00;;;5.65;100.00
7309;BME280;3695;53.330;9.876;2022-11-15T02:54:06;106311.59;;;5.76;100.00
7309;BME280;3695;53.330;9.876;2022-11-15T02:56:32;106328.78;;;5.72;100.00
7309;BME280;3695;53.330;9.876;2022-11-15T02:59:13;106382.56;;;5.75;100.00
7309;BME280;3695;53.330;9.876;2022-11-15T03:01:58;106436.47;;;5.74;100.00
7309;BME280;3695;53.330;9.876;2022-11-15T03:04:35;106490.44;;;5.71;100.00
7309;BME280;3695;53.330;9.876;2022-11-15T03:07:10;106602.13;;;5.90;100.00
7309;BME280;3695;53.330;9.876;2022-11-15T03:09:41;106686.09;;;6.06;100.00
7309;BME280;3695;53.330;9.876;2022-11-15T03:12:14;106685.69;;;5.87;100.00
7309;BME280;3695;53.330;9.876;2022-11-15T03:14:50;106729.66;;;5.89;100.00
7309;BME280;3695;53.330;9.876;2022-11-15T03:17:23;106740.69;;;5.80;100.00
7309;BME280;3695;53.330;9.876;2022-11-15T03:19:54;106763.59;;;5.60;100.00
7309;BME280;3695;53.330;9.876;2022-11-15T03:22:24;106866.56;;;5.73;100.00
7309;BME280;3695;53.330;9.876;2022-11-15T03:24:54;106921.31;;;5.74;100.00
7309;BME280;3695;53.330;9.876;2022-11-15T03:27:26;107029.53;;;5.94;100.00
7309;BME280;3695;53.330;9.876;2022-11-15T03:29:59;107028.84;;;5.84;100.00
7309;BME280;3695;53.330;9.876;2022-11-15T03:32:29;107034.31;;;5.80;100.00
7309;BME280;3695;53.330;9.876;2022-11-15T03:34:58;107006.78;;;5.65;100.00
7309;BME280;3695;53.330;9.876;2022-11-15T03:37:32;107059.50;;;5.79;100.00
7309;BME280;3695;53.330;9.876;2022-11-15T03:40:00;107112.31;;;5.86;100.00
7309;BME280;3695;53.330;9.876;2022-11-15T03:42:30;107254.53;;;6.19;100.00
7309;BME280;3695;53.330;9.876;2022-11-15T03:45:01;107290.41;;;6.23;100.00
7309;BME280;3695;53.330;9.876;2022-11-15T03:47:34;107345.91;;;6.33;100.00
7309;BME280;3695;53.330;9.876;2022-11-15T03:50:06;107464.94;;;6.61;100.00
7309;BME280;3695;53.330;9.876;2022-11-15T03:52:34;107454.34;;;6.52;100.00
7309;BME280;3695;53.330;9.876;2022-11-15T03:55:03;107526.00;;;6.68;100.00
7309;BME280;3695;53.330;9.876;2022-11-15T03:57:30;107588.84;;;6.75;100.00
7309;BME280;3695;53.330;9.876;2022-11-15T03:59:56;107740.50;;;6.98;100.00
7309;BME280;3695;53.330;9.876;2022-11-15T04:02:23;107772.88;;;7.00;100.00
7309;BME280;3695;53.330;9.876;2022-11-15T04:04:51;107833.00;;;7.14;100.00
7309;BME280;3695;53.330;9.876;2022-11-15T04:07:17;107823.09;;;7.14;100.00
7309;BME280;3695;53.330;9.876;2022-11-15T04:09:43;107808.88;;;7.00;100.00
7309;BME280;3695;53.330;9.876;2022-11-15T04:12:27;107922.09;;;7.14;100.00
7309;BME280;3695;53.330;9.876;2022-11-15T04:15:01;107971.50;;;7.22;100.00
7309;BME280;3695;53.330;9.876;2022-11-15T04:17:39;107990.41;;;7.22;100.00
7309;BME280;3695;53.330;9.876;2022-11-15T04:20:10;108048.72;;;7.38;100.00
7309;BME280;3695;53.330;9.876;2022-11-15T04:22:55;108055.84;;;7.45;100.00
7309;BME280;3695;53.330;9.876;2022-11-15T04:25:41;108061.19;;;7.50;100.00
7309;BME280;3695;53.330;9.876;2022-11-15T04:28:07;108058.50;;;7.48;100.00
7309;BME280;3695;53.330;9.876;2022-11-15T04:30:34;108030.69;;;7.40;100.00
7309;BME280;3695;53.330;9.876;2022-11-15T04:33:00;108042.38;;;7.41;100.00
7309;BME280;3695;53.330;9.876;2022-11-15T04:35:28;108091.84;;;7.47;100.00
7309;BME280;3695;53.330;9.876;2022-11-15T04:37:55;108139.50;;;7.53;100.00
7309;BME280;3695;53.330;9.876;2022-11-15T04:40:21;108183.59;;;7.60;100.00
7309;BME280;3695;53.330;9.876;2022-11-15T04:42:47;108258.22;;;7.74;100.00
7309;BME280;3695;53.330;9.876;2022-11-15T04:45:14;108266.31;;;7.76;100.00
7309;BME280;3695;53.330;9.876;2022-11-15T04:47:43;108258.19;;;7.76;100.00
7309;BME280;3695;53.330;9.876;2022-11-15T04:50:09;108223.13;;;7.70;100.00
7309;BME280;3695;53.330;9.876;2022-11-15T04:52:39;108248.38;;;7.69;100.00
7309;BME280;3695;53.330;9.876;2022-11-15T04:55:06;108343.69;;;7.87;100.00
7309;BME280;3695;53.330;9.876;2022-11-15T04:57:33;108349.09;;;7.89;100.00
7309;BME280;3695;53.330;9.876;2022-11-15T04:59:59;108338.34;;;7.83;100.00
7309;BME280;3695;53.330;9.876;2022-11-15T05:02:26;108350.84;;;7.93;100.00
7309;BME280;3695;53.330;9.876;2022-11-15T05:05:12;108326.59;;;7.84;100.00
7309;BME280;3695;53.330;9.876;2022-11-15T05:07:39;108332.88;;;7.87;100.00
7309;BME280;3695;53.330;9.876;2022-11-15T05:10:06;108345.47;;;7.90;100.00
7309;BME280;3695;53.330;9.876;2022-11-15T05:12:32;108312.22;;;7.80;100.00
7309;BME280;3695;53.330;9.876;2022-11-15T05:14:59;108338.28;;;7.87;100.00
7309;BME280;3695;53.330;9.876;2022-11-15T05:17:25;108332.00;;;7.85;100.00
7309;BME280;3695;53.330;9.876;2022-11-15T05:19:52;108331.06;;;7.88;100.00
7309;BME280;3695;53.330;9.876;2022-11-15T05:22:18;108321.13;;;7.92;100.00
7309;BME280;3695;53.330;9.876;2022-11-15T05:24:46;108282.41;;;7.88;100.00
7309;BME280;3695;53.330;9.876;2022-11-15T05:27:13;108291.31;;;7.96;100.00
7309;BME280;3695;53.330;9.876;2022-11-15T05:29:39;108270.50;;;8.04;100.00
7309;BME280;3695;53.330;9.876;2022-11-15T05:32:08;108238.06;;;8.00;100.00
7309;BME280;3695;53.330;9.876;2022-11-15T05:34:35;108235.31;;;8.07;100.00
7309;BME280;3695;53.330;9.876;2022-11-15T05:37:01;108209.16;;;8.08;100.00
7309;BME280;3695;53.330;9.876;2022-11-15T05:39:29;108191.94;;;8.13;100.00
7309;BME280;3695;53.330;9.876;2022-11-15T05:42:01;108145.13;;;8.08;100.00
7309;BME280;3695;53.330;9.876;2022-11-15T05:44:31;108143.22;;;8.16;100.00
7309;BME280;3695;53.330;9.876;2022-11-15T05:46:57;108122.47;;;8.15;100.00
7309;BME280;3695;53.330;9.876;2022-11-15T05:49:28;108110.75;;;8.16;100.00
7309;BME280;3695;53.330;9.876;2022-11-15T05:51:56;108128.56;;;8.30;100.00
7309;BME280;3695;53.330;9.876;2022-11-15T05:54:24;108094.31;;;8.29;100.00
7309;BME280;3695;53.330;9.876;2022-11-15T05:56:52;108087.91;;;8.36;100.00
7309;BME280;3695;53.330;9.876;2022-11-15T05:59:20;108028.50;;;8.27;100.00
7309;BME280;3695;53.330;9.876;2022-11-15T06:01:47;108024.81;;;8.32;100.00
7309;BME280;3695;53.330;9.876;2022-11-15T06:04:13;107997.69;;;8.37;100.00
7309;BME280;3695;53.330;9.876;2022-11-15T06:06:40;107952.66;;;8.34;100.00
7309;BME280;3695;53.330;9.876;2022-11-15T06:09:06;107912.94;;;8.35;100.00
7309;BME280;3695;53.330;9.876;2022-11-15T06:11:32;107874.16;;;8.36;100.00
7309;BME280;3695;53.330;9.876;2022-11-15T06:13:59;107860.47;;;8.43;100.00
7309;BME280;3695;53.330;9.876;2022-11-15T06:16:27;107810.06;;;8.38;100.00
7309;BME280;3695;53.330;9.876;2022-11-15T06:18:53;107761.31;;;8.39;100.00
7309;BME280;3695;53.330;9.876;2022-11-15T06:21:20;107722.47;;;8.42;100.00
7309;BME280;3695;53.330;9.876;2022-11-15T06:23:46;107670.34;;;8.32;100.00
7309;BME280;3695;53.330;9.876;2022-11-15T06:26:13;107700.75;;;8.45;100.00
7309;BME280;3695;53.330;9.876;2022-11-15T06:28:39;107655.72;;;8.42;100.00
7309;BME280;3695;53.330;9.876;2022-11-15T06:31:07;107596.31;;;8.38;100.00
7309;BME280;3695;53.330;9.876;2022-11-15T06:33:35;107560.97;;;8.44;100.00
7309;BME280;3695;53.330;9.876;2022-11-15T06:36:01;107533.84;;;8.47;100.00
7309;BME280;3695;53.330;9.876;2022-11-15T06:38:28;107475.22;;;8.46;100.00
7309;BME280;3695;53.330;9.876;2022-11-15T06:40:55;107441.81;;;8.47;100.00
7309;BME280;3695;53.330;9.876;2022-11-15T06:43:21;107390.28;;;8.53;100.00
7309;BME280;3695;53.330;9.876;2022-11-15T06:45:48;107330.13;;;8.42;100.00
7309;BME280;3695;53.330;9.876;2022-11-15T06:48:14;107336.56;;;8.38;100.00
7309;BME280;3695;53.330;9.876;2022-11-15T06:50:42;107373.28;;;8.46;100.00
7309;BME280;3695;53.330;9.876;2022-11-15T06:53:08;107340.81;;;8.46;100.00
7309;BME280;3695;53.330;9.876;2022-11-15T06:55:35;107320.16;;;8.44;100.00
7309;BME280;3695;53.330;9.876;2022-11-15T06:58:01;107353.22;;;8.55;100.00
7309;BME280;3695;53.330;9.876;2022-11-15T07:00:27;107323.44;;;8.55;100.00
7309;BME280;3695;53.330;9.876;2022-11-15T07:02:54;107292.84;;;8.53;100.00
7309;BME280;3695;53.330;9.876;2022-11-15T07:05:20;107306.94;;;8.64;100.00
7309;BME280;3695;53.330;9.876;2022-11-15T07:07:52;107271.75;;;8.64;100.00
7309;BME280;3695;53.330;9.876;2022-11-15T07:10:19;107254.47;;;8.68;100.00
7309;BME280;3695;53.330;9.876;2022-11-15T07:12:47;107212.06;;;8.69;100.00
7309;BME280;3695;53.330;9.876;2022-11-15T07:15:13;107194.72;;;8.74;100.00
7309;BME280;3695;53.330;9.876;2022-11-15T07:17:40;107150.78;;;8.66;100.00
7309;BME280;3695;53.330;9.876;2022-11-15T07:20:07;107165.69;;;8.79;100.00
7309;BME280;3695;53.330;9.876;2022-11-15T07:22:34;107138.50;;;8.82;100.00
7309;BME280;3695;53.330;9.876;2022-11-15T07:25:02;107093.63;;;8.75;100.00
7309;BME280;3695;53.330;9.876;2022-11-15T07:27:28;107071.16;;;8.73;100.00
7309;BME280;3695;53.330;9.876;2022-11-15T07:29:55;107106.91;;;8.83;100.00
7309;BME280;3695;53.330;9.876;2022-11-15T07:32:21;107124.97;;;8.82;100.00
7309;BME280;3695;53.330;9.876;2022-11-15T07:34:48;107150.78;;;8.93;100.00
7309;BME280;3695;53.330;9.876;2022-11-15T07:37:14;107121.94;;;8.92;100.00
7309;BME280;3695;53.330;9.876;2022-11-15T07:39:42;107110.91;;;8.98;100.00
7309;BME280;3695;53.330;9.876;2022-11-15T07:44:37;107073.94;;;8.97;100.00
7309;BME280;3695;53.330;9.876;2022-11-15T07:47:04;107068.66;;;8.92;100.00
7309;BME280;3695;53.330;9.876;2022-11-15T07:49:30;107105.47;;;8.98;100.00
7309;BME280;3695;53.330;9.876;2022-11-15T07:51:57;107140.84;;;8.93;100.00
7309;BME280;3695;53.330;9.876;2022-11-15T07:54:23;107202.97;;;8.98;100.00
7309;BME280;3695;53.330;9.876;2022-11-15T07:56:49;107244.25;;;9.06;100.00
7309;BME280;3695;53.330;9.876;2022-11-15T07:59:16;107191.34;;;8.94;100.00
7309;BME280;3695;53.330;9.876;2022-11-15T08:01:44;107197.47;;;9.01;100.00
7309;BME280;3695;53.330;9.876;2022-11-15T08:04:11;107166.88;;;8.99;100.00
7309;BME280;3695;53.330;9.876;2022-11-15T08:06:37;107109.06;;;9.00;100.00
7309;BME280;3695;53.330;9.876;2022-11-15T08:09:04;107023.34;;;8.97;100.00
7309;BME280;3695;53.330;9.876;2022-11-15T08:11:30;107031.84;;;9.13;100.00
7309;BME280;3695;53.330;9.876;2022-11-15T08:13:57;107001.69;;;9.22;100.00
7309;BME280;3695;53.330;9.876;2022-11-15T08:16:23;106900.53;;;9.23;100.00
7309;BME280;3695;53.330;9.876;2022-11-15T08:18:51;106815.72;;;9.21;100.00
7309;BME280;3695;53.330;9.876;2022-11-15T08:21:19;106811.56;;;9.34;100.00
7309;BME280;3695;53.330;9.876;2022-11-15T08:23:46;106735.91;;;9.30;100.00
7309;BME280;3695;53.330;9.876;2022-11-15T08:26:12;106686.31;;;9.28;100.00
7309;BME280;3695;53.330;9.876;2022-11-15T08:28:39;106679.22;;;9.45;100.00
7309;BME280;3695;53.330;9.876;2022-11-15T08:31:06;106642.38;;;9.62;100.00
7309;BME280;3695;53.330;9.876;2022-11-15T08:33:35;106553.75;;;9.64;100.00
7309;BME280;3695;53.330;9.876;2022-11-15T08:36:04;106460.72;;;9.63;100.00
7309;BME280;3695;53.330;9.876;2022-11-15T08:38:30;106405.84;;;9.77;100.00
7309;BME280;3695;53.330;9.876;2022-11-15T08:41:00;106343.28;;;9.99;100.00
7309;BME280;3695;53.330;9.876;2022-11-15T08:43:28;106191.03;;;9.72;100.00
7309;BME280;3695;53.330;9.876;2022-11-15T08:45:55;106175.25;;;9.80;100.00
7309;BME280;3695;53.330;9.876;2022-11-15T08:48:22;106121.91;;;9.81;100.00
7309;BME280;3695;53.330;9.876;2022-11-15T08:50:48;106093.59;;;9.86;100.00
7309;BME280;3695;53.330;9.876;2022-11-15T08:53:16;106049.88;;;9.92;100.00
7309;BME280;3695;53.330;9.876;2022-11-15T08:55:42;106056.72;;;9.99;100.00
7309;BME280;3695;53.330;9.876;2022-11-15T08:58:09;106054.09;;;10.14;100.00
7309;BME280;3695;53.330;9.876;2022-11-15T09:00:35;106041.44;;;10.30;100.00
7309;BME280;3695;53.330;9.876;2022-11-15T09:03:03;105995.06;;;10.34;100.00
7309;BME280;3695;53.330;9.876;2022-11-15T09:05:30;105925.06;;;10.41;100.00
7309;BME280;3695;53.330;9.876;2022-11-15T09:07:56;105868.66;;;10.46;100.00
7309;BME280;3695;53.330;9.876;2022-11-15T09:10:24;105805.69;;;10.55;100.00
7309;BME280;3695;53.330;9.876;2022-11-15T09:12:50;105740.25;;;10.60;100.00
7309;BME280;3695;53.330;9.876;2022-11-15T09:15:17;105694.78;;;10.63;100.00
7309;BME280;3695;53.330;9.876;2022-11-15T09:17:44;105644.19;;;10.62;100.00
7309;BME280;3695;53.330;9.876;2022-11-15T09:20:11;105601.53;;;10.64;100.00
7309;BME280;3695;53.330;9.876;2022-11-15T09:22:37;105569.84;;;10.65;100.00
7309;BME280;3695;53.330;9.876;2022-11-15T09:25:05;105571.47;;;10.67;100.00
7309;BME280;3695;53.330;9.876;2022-11-15T09:27:33;105564.72;;;10.60;100.00
7309;BME280;3695;53.330;9.876;2022-11-15T09:30:00;105601.69;;;10.76;100.00
7309;BME280;3695;53.330;9.876;2022-11-15T09:32:28;105585.72;;;10.71;100.00
7309;BME280;3695;53.330;9.876;2022-11-15T09:34:55;105608.34;;;10.84;100.00
7309;BME280;3695;53.330;9.876;2022-11-15T09:37:21;105587.28;;;10.88;100.00
7309;BME280;3695;53.330;9.876;2022-11-15T09:39:48;105577.03;;;10.93;100.00
7309;BME280;3695;53.330;9.876;2022-11-15T09:45:21;105541.00;;;11.03;100.00
7309;BME280;3695;53.330;9.876;2022-11-15T09:48:00;105547.50;;;11.01;100.00
7309;BME280;3695;53.330;9.876;2022-11-15T09:50:36;105562.72;;;11.03;100.00
7309;BME280;3695;53.330;9.876;2022-11-15T09:53:10;105593.81;;;11.12;100.00
7309;BME280;3695;53.330;9.876;2022-11-15T09:55:48;105576.31;;;11.16;100.00
7309;BME280;3695;53.330;9.876;2022-11-15T09:58:22;105596.13;;;11.31;100.00
7309;BME280;3695;53.330;9.876;2022-11-15T10:00:53;105572.75;;;11.28;100.00
7309;BME280;3695;53.330;9.876;2022-11-15T10:03:26;105561.06;;;11.41;100.00
7309;BME280;3695;53.330;9.876;2022-11-15T10:05:56;105506.72;;;11.41;100.00
7309;BME280;3695;53.330;9.876;2022-11-15T10:08:45;105442.47;;;11.40;100.00
7309;BME280;3695;53.330;9.876;2022-11-15T10:11:17;105413.00;;;11.33;100.00
7309;BME280;3695;53.330;9.876;2022-11-15T10:13:46;105437.91;;;11.40;100.00
7309;BME280;3695;53.330;9.876;2022-11-15T10:16:25;105380.94;;;11.26;100.00
7309;BME280;3695;53.330;9.876;2022-11-15T10:19:00;105364.53;;;11.27;100.00
7309;BME280;3695;53.330;9.876;2022-11-15T10:21:40;105338.66;;;11.34;100.00
7309;BME280;3695;53.330;9.876;2022-11-15T10:24:12;105242.63;;;11.35;100.00
7309;BME280;3695;53.330;9.876;2022-11-15T10:26:39;105169.03;;;11.39;100.00
7309;BME280;3695;53.330;9.876;2022-11-15T10:29:17;105122.00;;;11.49;100.00
7309;BME280;3695;53.330;9.876;2022-11-15T10:31:45;105090.78;;;11.55;100.00
7309;BME280;3695;53.330;9.876;2022-11-15T10:34:13;105019.38;;;11.53;100.00
7309;BME280;3695;53.330;9.876;2022-11-15T10:36:44;104963.78;;;11.57;100.00
7309;BME280;3695;53.330;9.876;2022-11-15T10:39:12;104913.88;;;11.58;100.00
7309;BME280;3695;53.330;9.876;2022-11-15T10:41:39;104871.13;;;11.60;100.00
7309;BME280;3695;53.330;9.876;2022-11-15T10:44:22;104836.16;;;11.66;100.00
7309;BME280;3695;53.330;9.876;2022-11-15T10:47:19;104783.78;;;11.64;100.00
7309;BME280;3695;53.330;9.876;2022-11-15T10:49:54;104715.84;;;11.64;100.00
7309;BME280;3695;53.330;9.876;2022-11-15T10:52:21;104688.47;;;11.77;100.00
7309;BME280;3695;53.330;9.876;2022-11-15T10:54:52;104653.13;;;11.88;100.00
7309;BME280;3695;53.330;9.876;2022-11-15T10:57:22;104611.34;;;11.89;100.00
7309;BME280;3695;53.330;9.876;2022-11-15T10:59:51;104553.53;;;11.87;100.00
7309;BME280;3695;53.330;9.876;2022-11-15T11:02:30;104538.53;;;11.93;100.00
7309;BME280;3695;53.330;9.876;2022-11-15T11:04:58;104519.91;;;11.88;100.00
7309;BME280;3695;53.330;9.876;2022-11-15T11:07:26;104471.97;;;11.87;100.00
7309;BME280;3695;53.330;9.876;2022-11-15T11:09:58;104469.13;;;11.89;100.00
7309;BME280;3695;53.330;9.876;2022-11-15T11:12:30;104449.03;;;11.80;100.00
7309;BME280;3695;53.330;9.876;2022-11-15T11:14:59;104469.13;;;11.89;100.00
7309;BME280;3695;53.330;9.876;2022-11-15T11:17:41;104408.75;;;11.95;100.00
7309;BME280;3695;53.330;9.876;2022-11-15T11:20:18;104366.84;;;11.97;100.00
7309;BME280;3695;53.330;9.876;2022-11-15T11:22:56;104314.59;;;12.04;100.00
7309;BME280;3695;53.330;9.876;2022-11-15T11:25:32;104256.94;;;12.10;100.00
7309;BME280;3695;53.330;9.876;2022-11-15T11:28:12;104207.81;;;12.21;100.00
7309;BME280;3695;53.330;9.876;2022-11-15T11:30:49;103977.66;;;12.20;100.00
7309;BME280;3695;53.330;9.876;2022-11-15T11:33:24;103942.38;;;12.28;100.00
7309;BME280;3695;53.330;9.876;2022-11-15T11:36:03;103859.16;;;12.17;100.00
7309;BME280;3695;53.330;9.876;2022-11-15T11:38:41;103822.13;;;12.34;100.00
7309;BME280;3695;53.330;9.876;2022-11-15T11:41:16;103790.56;;;12.41;100.00
7309;BME280;3695;53.330;9.876;2022-11-15T11:43:55;103768.16;;;12.29;100.00
7309;BME280;3695;53.330;9.876;2022-11-15T11:46:37;103771.66;;;12.40;100.00
7309;BME280;3695;53.330;9.876;2022-11-15T11:49:12;103754.41;;;12.49;100.00
7309;BME280;3695;53.330;9.876;2022-11-15T11:51:45;103680.25;;;12.47;100.00
7309;BME280;3695;53.330;9.876;2022-11-15T11:54:19;103602.44;;;12.62;100.00
7309;BME280;3695;53.330;9.876;2022-11-15T11:56:47;103512.16;;;12.67;100.00
7309;BME280;3695;53.330;9.876;2022-11-15T11:59:19;103431.75;;;12.80;100.00
7309;BME280;3695;53.330;9.876;2022-11-15T12:01:48;103361.84;;;12.81;100.00
7309;BME280;3695;53.330;9.876;2022-11-15T12:04:19;103285.25;;;12.76;100.00
7309;BME280;3695;53.330;9.876;2022-11-15T12:06:50;103279.81;;;12.92;100.00
7309;BME280;3695;53.330;9.876;2022-11-15T12:09:21;103235.38;;;13.00;100.00
7309;BME280;3695;53.330;9.876;2022-11-15T12:11:56;103193.16;;;13.04;100.00
7309;BME280;3695;53.330;9.876;2022-11-15T12:14:32;103169.53;;;12.96;100.00
7309;BME280;3695;53.330;9.876;2022-11-15T12:17:00;103158.09;;;13.09;100.00
7309;BME280;3695;53.330;9.876;2022-11-15T12:19:28;103125.56;;;13.15;100.00
7309;BME280;3695;53.330;9.876;2022-11-15T12:22:00;103089.81;;;13.27;100.00
7309;BME280;3695;53.330;9.876;2022-11-15T12:24:30;103036.38;;;13.17;100.00
7309;BME280;3695;53.330;9.876;2022-11-15T12:27:02;102998.34;;;13.01;100.00
7309;BME280;3695;53.330;9.876;2022-11-15T12:29:35;102977.66;;;12.92;100.00
7309;BME280;3695;53.330;9.876;2022-11-15T12:32:03;102984.31;;;12.89;100.00
7309;BME280;3695;53.330;9.876;2022-11-15T12:34:41;102992.31;;;12.91;100.00
7309;BME280;3695;53.330;9.876;2022-11-15T12:40:23;102983.47;;;12.89;100.00
7309;BME280;3695;53.330;9.876;2022-11-15T12:46:19;102933.25;;;13.14;100.00
7309;BME280;3695;53.330;9.876;2022-11-15T12:48:55;102896.53;;;13.10;100.00
7309;BME280;3695;53.330;9.876;2022-11-15T12:54:53;102832.44;;;13.22;100.00
7309;BME280;3695;53.330;9.876;2022-11-15T12:57:32;102825.69;;;13.18;100.00
7309;BME280;3695;53.330;9.876;2022-11-15T13:00:00;102815.91;;;13.24;100.00
7309;BME280;3695;53.330;9.876;2022-11-15T13:02:30;102804.25;;;13.15;100.00
7309;BME280;3695;53.330;9.876;2022-11-15T13:07:58;102826.72;;;13.17;100.00
7309;BME280;3695;53.330;9.876;2022-11-15T13:10:30;102825.00;;;13.16;100.00
7309;BME280;3695;53.330;9.876;2022-11-15T13:12:58;102825.97;;;13.23;100.00
7309;BME280;3695;53.330;9.876;2022-11-15T13:15:36;102815.25;;;13.22;100.00
7309;BME280;3695;53.330;9.876;2022-11-15T13:18:26;102800.38;;;13.33;100.00
7309;BME280;3695;53.330;9.876;2022-11-15T13:20:54;102776.13;;;13.38;100.00
7309;BME280;3695;53.330;9.876;2022-11-15T13:23:22;102775.38;;;13.44;100.00
7309;BME280;3695;53.330;9.876;2022-11-15T13:28:47;102728.88;;;13.45;100.00
7309;BME280;3695;53.330;9.876;2022-11-15T13:31:30;102698.16;;;13.51;100.00
7309;BME280;3695;53.330;9.876;2022-11-15T13:34:02;102672.25;;;13.41;100.00
7309;BME280;3695;53.330;9.876;2022-11-15T13:36:31;102674.34;;;13.60;100.00
7309;BME280;3695;53.330;9.876;2022-11-15T13:39:03;102642.44;;;13.54;100.00
7309;BME280;3695;53.330;9.876;2022-11-15T13:41:32;102600.66;;;13.68;100.00
7309;BME280;3695;53.330;9.876;2022-11-15T13:43:59;102568.16;;;13.67;100.00